Time;durP1;ratioP1;P1;durP2;ratioP2;P2;SDS_P1;SDS_P2;PMS_P1;PMS_P2;Temp;Humidity;BMP_temperature;BMP_pressure;BME280_temperature;BME280_humidity;BME280_pressure;Samples;Min_cycle;Max_cycle;Signal;HPM_P1;HPM_P2
2021/04/20 00:01:10;;;;;;;29.10;20.48;;;6.80;99.90;;;;;;5031080;28;20185;-76
2021/04/20 00:03:37;;;;;;;32.80;22.02;;;6.80;99.90;;;;;;5043200;28;20187;-75
2021/04/20 00:06:06;;;;;;;27.67;20.95;;;6.80;99.90;;;;;;5049410;28;20575;-74
2021/04/20 00:08:32;;;;;;;28.63;21.05;;;6.80;99.90;;;;;;5050322;28;20212;-75
2021/04/20 00:10:59;;;;;;;27.45;19.92;;;6.70;99.90;;;;;;5014039;28;20650;-75
2021/04/20 00:13:25;;;;;;;26.65;19.90;;;6.80;99.90;;;;;;5010444;28;20212;-76
2021/04/20 00:15:53;;;;;;;30.38;22.70;;;6.70;99.90;;;;;;5010394;28;20672;-74
2021/04/20 00:18:20;;;;;;;24.83;20.98;;;6.60;99.90;;;;;;5020219;28;20626;-74
2021/04/20 00:20:47;;;;;;;29.38;20.70;;;6.60;99.90;;;;;;5031433;28;20257;-75
2021/04/20 00:23:13;;;;;;;24.63;19.48;;;6.70;99.90;;;;;;5029670;28;20220;-76
2021/04/20 00:25:40;;;;;;;29.02;19.92;;;6.60;99.90;;;;;;5029276;28;20223;-73
2021/04/20 00:28:07;;;;;;;25.35;20.38;;;6.60;99.90;;;;;;5030766;28;20751;-76
2021/04/20 00:30:34;;;;;;;34.88;24.48;;;6.60;99.90;;;;;;5030193;28;20271;-76
2021/04/20 00:33:00;;;;;;;29.15;22.98;;;6.50;99.90;;;;;;5029724;28;20217;-75
2021/04/20 00:35:27;;;;;;;31.00;22.10;;;6.50;99.90;;;;;;5041877;28;20240;-74
2021/04/20 00:37:53;;;;;;;31.55;23.42;;;6.50;99.90;;;;;;5033104;28;20216;-75
2021/04/20 00:40:20;;;;;;;30.70;22.90;;;6.50;99.90;;;;;;5019245;28;20186;-75
2021/04/20 00:42:53;;;;;;;31.15;22.77;;;6.50;99.90;;;;;;5011030;28;20229;-74
2021/04/20 00:45:22;;;;;;;32.85;22.98;;;6.60;99.90;;;;;;5012002;28;20206;-74
2021/04/20 00:47:49;;;;;;;33.33;23.30;;;6.60;99.90;;;;;;5013495;28;20224;-75
2021/04/20 00:50:18;;;;;;;31.50;22.27;;;6.50;99.90;;;;;;5025746;28;20254;-76
2021/04/20 00:52:45;;;;;;;34.75;23.52;;;6.50;99.90;;;;;;5017051;28;20271;-75
2021/04/20 00:55:12;;;;;;;28.92;23.33;;;6.50;99.90;;;;;;5032785;28;20205;-74
2021/04/20 00:57:38;;;;;;;29.58;22.55;;;6.40;99.90;;;;;;5016560;28;20300;-75
2021/04/20 01:00:10;;;;;;;31.70;22.63;;;6.40;99.90;;;;;;5033681;28;20608;-75
2021/04/20 01:02:37;;;;;;;29.88;21.75;;;6.50;99.90;;;;;;5033866;28;20221;-75
2021/04/20 01:05:16;;;;;;;29.05;21.75;;;6.40;99.90;;;;;;5033650;28;20610;-75
2021/04/20 01:07:43;;;;;;;30.67;22.90;;;6.30;99.90;;;;;;5032889;28;20706;-76
2021/04/20 01:10:12;;;;;;;32.53;23.33;;;6.30;99.90;;;;;;5042181;28;20185;-74
2021/04/20 01:12:40;;;;;;;34.08;22.67;;;6.30;99.90;;;;;;5036264;28;20224;-74
2021/04/20 01:15:10;;;;;;;29.85;23.23;;;6.20;99.90;;;;;;5036593;28;20385;-75
2021/04/20 01:17:36;;;;;;;35.15;23.42;;;6.20;99.90;;;;;;5050429;28;20220;-76
2021/04/20 01:20:10;;;;;;;31.45;23.55;;;6.10;99.90;;;;;;5054345;28;20180;-74
2021/04/20 01:22:45;;;;;;;34.58;25.75;;;6.10;99.90;;;;;;5035951;28;20250;-74
2021/04/20 01:25:14;;;;;;;33.38;23.73;;;6.10;99.90;;;;;;5023336;28;20634;-74
2021/04/20 01:27:41;;;;;;;28.55;21.63;;;6.10;99.90;;;;;;5012603;28;20714;-74
2021/04/20 01:30:10;;;;;;;28.70;21.50;;;6.10;99.90;;;;;;5014632;28;20189;-75
2021/04/20 01:32:42;;;;;;;33.50;22.75;;;6.00;99.90;;;;;;5012517;28;20237;-74
2021/04/20 01:35:11;;;;;;;30.35;21.52;;;6.00;99.90;;;;;;5025070;28;20643;-74
2021/04/20 01:37:38;;;;;;;26.30;19.38;;;6.00;99.90;;;;;;5033292;28;20271;-76
2021/04/20 01:40:06;;;;;;;27.27;20.45;;;6.00;99.90;;;;;;5031278;28;20658;-75
2021/04/20 01:42:34;;;;;;;34.55;22.25;;;5.90;99.90;;;;;;5031903;28;20213;-75
2021/04/20 01:45:03;;;;;;;29.00;19.65;;;5.90;99.90;;;;;;5016051;28;20217;-75
2021/04/20 01:47:29;;;;;;;27.10;20.40;;;5.80;99.90;;;;;;5032855;28;20251;-75
2021/04/20 01:49:56;;;;;;;27.98;21.00;;;5.80;99.90;;;;;;5032775;28;20185;-76
2021/04/20 01:52:22;;;;;;;26.73;20.77;;;5.80;99.90;;;;;;5031932;28;20220;-74
2021/04/20 01:54:49;;;;;;;28.23;20.10;;;5.80;99.90;;;;;;5031912;28;20593;-74
2021/04/20 01:57:17;;;;;;;26.58;19.25;;;5.80;99.90;;;;;;5026660;28;20300;-76
2021/04/20 01:59:44;;;;;;;28.10;18.60;;;5.70;99.90;;;;;;5033390;28;20539;-75
2021/04/20 02:02:10;;;;;;;28.35;20.13;;;5.70;99.90;;;;;;5015441;28;20227;-75
2021/04/20 02:04:37;;;;;;;27.45;19.92;;;5.70;99.90;;;;;;5024145;28;20658;-74
2021/04/20 02:07:04;;;;;;;27.27;21.98;;;5.70;99.90;;;;;;5051698;28;20725;-75
2021/04/20 02:09:30;;;;;;;28.13;19.85;;;5.70;99.90;;;;;;5031394;28;20224;-75
2021/04/20 02:12:00;;;;;;;32.95;22.55;;;5.70;99.90;;;;;;5032958;28;20316;-75
2021/04/20 02:14:27;;;;;;;31.30;19.48;;;5.60;99.90;;;;;;5033129;28;20242;-75
2021/04/20 02:16:56;;;;;;;30.40;21.60;;;5.70;99.90;;;;;;5032592;28;20590;-75
2021/04/20 02:19:23;;;;;;;32.42;21.98;;;5.60;99.90;;;;;;5031454;28;20284;-75
2021/04/20 02:21:52;;;;;;;32.58;22.58;;;5.60;99.90;;;;;;5031623;28;20223;-75
2021/04/20 02:24:19;;;;;;;31.20;20.27;;;5.60;99.90;;;;;;5015034;28;20288;-74
2021/04/20 02:26:46;;;;;;;31.42;22.60;;;5.50;99.90;;;;;;5031265;28;20309;-76
2021/04/20 02:29:13;;;;;;;32.30;22.25;;;5.60;99.90;;;;;;5031995;28;20531;-74
2021/04/20 02:31:42;;;;;;;31.08;23.38;;;5.50;99.90;;;;;;5032595;28;20290;-75
2021/04/20 02:34:11;;;;;;;33.35;24.10;;;5.50;99.90;;;;;;5031192;28;20211;-75
2021/04/20 02:36:43;;;;;;;28.35;20.58;;;5.60;99.90;;;;;;5031230;28;20225;-74
2021/04/20 02:39:12;;;;;;;29.58;20.52;;;5.50;99.90;;;;;;5031223;28;20204;-75
2021/04/20 02:41:40;;;;;;;22.23;19.15;;;5.50;99.90;;;;;;5011356;28;20242;-75
2021/04/20 02:44:09;;;;;;;25.45;18.85;;;5.40;99.90;;;;;;5011921;28;20185;-74
2021/04/20 02:46:37;;;;;;;27.63;19.00;;;5.40;99.90;;;;;;5012466;28;20260;-74
2021/04/20 02:49:05;;;;;;;24.02;18.02;;;5.30;99.90;;;;;;5031950;28;20243;-75
2021/04/20 02:51:34;;;;;;;23.23;18.25;;;5.30;99.90;;;;;;5048666;28;20230;-76
2021/04/20 02:54:01;;;;;;;23.25;17.63;;;5.30;99.90;;;;;;5031425;28;20205;-74
2021/04/20 02:56:29;;;;;;;25.48;17.70;;;5.20;99.90;;;;;;5050272;28;20228;-74
2021/04/20 02:58:59;;;;;;;23.25;16.48;;;5.20;99.90;;;;;;5051365;28;20191;-75
2021/04/20 03:01:36;;;;;;;20.45;16.05;;;5.30;99.90;;;;;;5033951;28;20235;-75
2021/04/20 03:04:03;;;;;;;23.73;17.85;;;5.20;99.90;;;;;;5012761;28;20210;-74
2021/04/20 03:06:30;;;;;;;22.02;17.10;;;5.20;99.90;;;;;;5030445;28;20225;-74
2021/04/20 03:08:57;;;;;;;28.42;19.40;;;5.30;99.90;;;;;;5014624;28;20198;-74
2021/04/20 03:11:29;;;;;;;26.08;18.83;;;5.30;99.90;;;;;;5031211;28;20232;-76
2021/04/20 03:13:58;;;;;;;30.23;20.80;;;5.20;99.90;;;;;;5014975;28;20201;-75
2021/04/20 03:16:30;;;;;;;37.78;22.65;;;5.20;99.90;;;;;;5013720;28;20679;-75
2021/04/20 03:18:57;;;;;;;29.25;21.00;;;5.30;99.90;;;;;;5036915;28;20180;-75
2021/04/20 03:21:24;;;;;;;31.52;21.05;;;5.30;99.90;;;;;;5050319;28;20224;-74
2021/04/20 03:23:53;;;;;;;26.20;18.40;;;5.30;99.90;;;;;;5052136;28;20191;-74
2021/04/20 03:26:23;;;;;;;21.27;19.05;;;5.20;99.90;;;;;;5010868;28;20303;-75
2021/04/20 03:28:58;;;;;;;24.45;17.67;;;5.10;99.90;;;;;;5011008;28;20194;-75
2021/04/20 03:31:27;;;;;;;27.60;20.08;;;5.00;99.90;;;;;;5010638;28;20236;-76
2021/04/20 03:34:13;;;;;;;23.58;17.63;;;5.10;99.90;;;;;;5013178;28;20293;-74
2021/04/20 03:36:45;;;;;;;25.63;16.17;;;5.10;99.90;;;;;;5013562;28;20686;-74
2021/04/20 03:39:20;;;;;;;27.83;17.63;;;5.00;99.90;;;;;;5030133;28;20275;-76
2021/04/20 03:42:07;;;;;;;22.08;15.65;;;5.00;99.90;;;;;;5030306;28;20286;-75
2021/04/20 03:44:48;;;;;;;21.77;16.65;;;4.90;99.90;;;;;;5030705;28;20277;-74
2021/04/20 03:47:18;;;;;;;28.95;19.15;;;4.80;99.90;;;;;;5031474;28;20244;-74
2021/04/20 03:49:48;;;;;;;22.90;17.17;;;4.70;99.90;;;;;;5020408;28;20707;-74
2021/04/20 03:52:30;;;;;;;23.10;17.17;;;4.80;99.90;;;;;;5025546;28;20231;-74
2021/04/20 03:54:59;;;;;;;22.27;16.20;;;4.70;99.90;;;;;;5013787;28;20220;-74
2021/04/20 03:57:34;;;;;;;24.80;18.17;;;4.70;99.90;;;;;;5031118;28;20224;-74
2021/04/20 04:00:06;;;;;;;24.75;17.42;;;4.60;99.90;;;;;;5030467;28;20263;-75
2021/04/20 04:02:36;;;;;;;25.13;18.45;;;4.60;99.90;;;;;;5031225;28;20225;-75
2021/04/20 04:05:06;;;;;;;27.02;19.17;;;4.60;99.90;;;;;;5030112;28;20220;-74
2021/04/20 04:07:35;;;;;;;23.77;16.88;;;4.50;99.90;;;;;;5029947;28;20649;-74
2021/04/20 04:10:03;;;;;;;24.63;17.40;;;4.50;99.90;;;;;;5037984;28;20267;-75
2021/04/20 04:12:37;;;;;;;35.08;23.15;;;4.60;99.90;;;;;;5042973;28;20724;-76
2021/04/20 04:15:07;;;;;;;47.53;30.98;;;4.50;99.90;;;;;;5012952;28;20237;-74
2021/04/20 04:17:36;;;;;;;48.15;28.90;;;4.50;99.90;;;;;;5031916;28;20224;-77
2021/04/20 04:20:05;;;;;;;49.10;30.15;;;4.60;99.90;;;;;;5033573;28;20181;-76
2021/04/20 04:22:35;;;;;;;46.75;28.00;;;4.60;99.90;;;;;;5037098;28;20282;-75
2021/04/20 04:25:04;;;;;;;47.10;31.48;;;4.60;99.90;;;;;;5046622;28;20215;-75
2021/04/20 04:27:39;;;;;;;39.00;27.33;;;4.60;99.90;;;;;;5021003;28;20614;-74
2021/04/20 04:30:10;;;;;;;42.15;27.13;;;4.60;99.90;;;;;;5034215;28;20208;-75
2021/04/20 04:32:41;;;;;;;38.72;25.45;;;4.60;99.90;;;;;;5034086;28;20224;-75
2021/04/20 04:35:08;;;;;;;34.60;24.42;;;4.60;99.90;;;;;;5034949;28;20221;-73
2021/04/20 04:37:36;;;;;;;30.75;22.73;;;4.60;99.90;;;;;;5034618;28;20216;-73
2021/04/20 04:40:08;;;;;;;32.28;21.10;;;4.60;99.90;;;;;;5033157;28;20231;-75
2021/04/20 04:42:35;;;;;;;36.08;23.02;;;4.60;99.90;;;;;;5034902;28;20361;-77
2021/04/20 04:45:05;;;;;;;35.38;23.55;;;4.60;99.90;;;;;;5035170;28;20631;-74
2021/04/20 04:47:33;;;;;;;37.78;23.27;;;4.50;99.90;;;;;;5026092;28;20212;-75
2021/04/20 04:50:01;;;;;;;34.63;22.98;;;4.50;99.90;;;;;;5035225;28;20217;-76
2021/04/20 04:52:29;;;;;;;30.52;21.73;;;4.50;99.90;;;;;;5032952;28;20649;-76
2021/04/20 04:54:57;;;;;;;36.45;22.25;;;4.50;99.90;;;;;;5034172;28;20201;-74
2021/04/20 04:57:26;;;;;;;25.70;20.15;;;4.50;99.90;;;;;;5032626;28;20217;-74
2021/04/20 04:59:59;;;;;;;34.72;20.75;;;4.50;99.90;;;;;;5033441;28;20281;-76
2021/04/20 05:02:27;;;;;;;34.45;22.02;;;4.60;99.90;;;;;;5032505;28;20443;-77
2021/04/20 05:05:03;;;;;;;33.05;21.70;;;4.60;99.90;;;;;;5033606;28;20197;-74
2021/04/20 05:07:30;;;;;;;33.83;22.42;;;4.70;99.90;;;;;;5013157;28;20626;-74
2021/04/20 05:10:06;;;;;;;36.80;25.40;;;4.70;99.90;;;;;;5010733;28;20213;-75
2021/04/20 05:12:34;;;;;;;35.38;22.55;;;4.70;99.90;;;;;;5032769;28;20239;-75
2021/04/20 05:15:13;;;;;;;28.17;21.58;;;4.70;99.90;;;;;;5016996;28;20296;-74
2021/04/20 05:17:41;;;;;;;31.73;20.05;;;4.70;99.90;;;;;;5012209;28;20213;-74
2021/04/20 05:20:10;;;;;;;27.40;19.90;;;4.70;99.90;;;;;;5014743;28;20202;-76
2021/04/20 05:22:37;;;;;;;28.55;20.70;;;4.80;99.90;;;;;;4996686;28;20609;-76
2021/04/20 05:25:12;;;;;;;33.10;22.67;;;4.90;99.90;;;;;;5004612;28;20213;-74
2021/04/20 05:27:39;;;;;;;30.00;21.48;;;5.10;99.90;;;;;;5012506;28;20217;-73
2021/04/20 05:30:07;;;;;;;29.95;21.13;;;5.20;99.90;;;;;;5013278;28;20592;-76
2021/04/20 05:32:36;;;;;;;32.22;21.42;;;5.40;99.90;;;;;;5015621;28;20255;-76
2021/04/20 05:35:05;;;;;;;33.65;20.75;;;5.60;99.90;;;;;;5032576;28;20294;-74
2021/04/20 05:37:34;;;;;;;33.53;22.92;;;5.80;99.90;;;;;;5032268;28;20220;-76
2021/04/20 05:40:15;;;;;;;31.60;21.90;;;6.20;99.90;;;;;;5039308;28;20621;-74
2021/04/20 05:42:42;;;;;;;31.08;21.63;;;6.40;99.90;;;;;;5019602;28;20690;-75
2021/04/20 05:45:12;;;;;;;26.17;19.40;;;6.60;99.90;;;;;;5035947;28;20239;-74
2021/04/20 05:47:40;;;;;;;28.27;20.52;;;6.80;99.90;;;;;;5043811;28;20216;-75
2021/04/20 05:50:10;;;;;;;30.35;22.70;;;7.00;99.90;;;;;;5033713;28;20181;-76
2021/04/20 05:52:37;;;;;;;31.80;21.02;;;7.30;99.90;;;;;;5031987;28;20659;-74
2021/04/20 05:55:05;;;;;;;36.63;21.63;;;7.50;99.90;;;;;;5040183;28;20222;-75
2021/04/20 05:57:32;;;;;;;27.67;21.88;;;7.70;99.90;;;;;;5052823;28;20582;-75
2021/04/20 06:00:00;;;;;;;28.17;19.50;;;7.80;99.90;;;;;;5053353;28;20187;-75
2021/04/20 06:02:31;;;;;;;28.50;21.50;;;8.00;99.90;;;;;;5032782;28;20216;-76
2021/04/20 06:05:02;;;;;;;29.65;22.27;;;8.10;99.90;;;;;;4996119;28;20525;-74
2021/04/20 06:07:29;;;;;;;27.90;20.30;;;8.20;99.90;;;;;;5018252;28;20221;-74
2021/04/20 06:09:59;;;;;;;28.67;20.90;;;8.40;99.90;;;;;;5032723;28;20867;-76
2021/04/20 06:12:25;;;;;;;29.43;21.60;;;8.60;99.90;;;;;;5031371;28;20460;-74
2021/04/20 06:14:52;;;;;;;26.87;21.13;;;8.80;99.90;;;;;;5033264;28;20813;-74
2021/04/20 06:17:19;;;;;;;28.43;21.30;;;8.90;99.90;;;;;;5011372;28;20465;-73
2021/04/20 06:19:46;;;;;;;26.20;21.27;;;9.00;99.90;;;;;;4995885;28;20429;-74
2021/04/20 06:22:16;;;;;;;26.30;21.90;;;9.20;99.90;;;;;;5004864;28;20500;-74
2021/04/20 06:24:45;;;;;;;39.63;26.43;;;9.50;99.90;;;;;;5032426;28;20475;-74
2021/04/20 06:27:15;;;;;;;31.63;25.07;;;9.70;99.90;;;;;;5013979;28;20562;-74
2021/04/20 06:29:42;;;;;;;46.53;32.37;;;9.90;99.90;;;;;;5015735;28;20448;-74
2021/04/20 06:32:12;;;;;;;44.67;33.60;;;10.20;99.90;;;;;;5014778;28;20470;-76
2021/04/20 06:34:39;;;;;;;45.43;32.63;;;10.40;99.90;;;;;;5031283;28;20474;-74
2021/04/20 06:37:08;;;;;;;44.20;34.00;;;10.60;99.90;;;;;;5014760;28;20551;-75
2021/04/20 06:39:37;;;;;;;39.07;32.63;;;10.80;99.90;;;;;;5015156;28;20851;-75
2021/04/20 06:42:07;;;;;;;33.43;28.93;;;11.20;99.90;;;;;;5031448;28;20993;-75
2021/04/20 06:45:02;;;;;;;36.83;27.97;;;11.50;99.90;;;;;;5015606;28;20432;-74
2021/04/20 06:47:49;;;;;;;36.30;29.47;;;11.60;99.90;;;;;;5033073;28;20455;-75
2021/04/20 06:50:17;;;;;;;33.03;26.60;;;11.80;99.90;;;;;;5047820;28;20529;-74
2021/04/20 06:52:57;;;;;;;32.27;26.20;;;12.30;99.90;;;;;;5034459;28;20525;-75
2021/04/20 06:55:52;;;;;;;35.87;28.47;;;12.50;99.90;;;;;;5033534;28;20501;-75
2021/04/20 06:58:51;;;;;;;34.77;29.00;;;12.50;99.90;;;;;;5040923;28;20472;-74
2021/04/20 07:01:25;;;;;;;33.50;27.33;;;12.70;99.90;;;;;;5024842;28;20465;-76
2021/04/20 07:04:06;;;;;;;37.73;30.60;;;12.90;99.90;;;;;;5017277;28;20954;-75
2021/04/20 07:06:36;;;;;;;38.10;29.60;;;13.00;99.90;;;;;;5012187;28;20556;-74
2021/04/20 07:09:13;;;;;;;39.73;31.60;;;12.80;99.90;;;;;;5013441;28;20421;-74
2021/04/20 07:11:47;;;;;;;39.93;30.93;;;12.80;99.90;;;;;;4994843;28;20457;-74
2021/04/20 07:14:25;;;;;;;36.23;31.50;;;12.90;99.90;;;;;;5012619;28;20460;-75
2021/04/20 07:17:04;;;;;;;44.20;32.37;;;13.00;99.90;;;;;;5022306;28;20966;-74
2021/04/20 07:19:55;;;;;;;40.63;34.03;;;13.10;99.90;;;;;;5030606;28;20661;-74
2021/04/20 07:23:02;;;;;;;37.77;31.00;;;13.20;99.90;;;;;;5030670;28;20546;-74
2021/04/20 07:25:58;;;;;;;43.20;33.67;;;13.30;99.90;;;;;;5014192;28;20463;-75
2021/04/20 07:29:03;;;;;;;49.70;35.00;;;13.70;99.90;;;;;;5023669;28;20521;-75
2021/04/20 07:31:52;;;;;;;42.67;33.47;;;13.90;99.90;;;;;;5031517;28;20459;-75
2021/04/20 07:34:42;;;;;;;42.70;36.57;;;14.20;99.90;;;;;;5037758;28;20470;-75
2021/04/20 07:37:35;;;;;;;40.73;36.30;;;14.30;99.90;;;;;;5034227;28;20988;-75
2021/04/20 07:40:26;;;;;;;48.03;39.03;;;14.70;99.90;;;;;;5027025;28;20439;-75
2021/04/20 07:43:30;;;;;;;50.20;37.60;;;14.70;99.90;;;;;;5031046;28;20452;-74
2021/04/20 07:46:27;;;;;;;47.67;41.63;;;15.00;99.90;;;;;;5030195;28;20469;-75
2021/04/20 07:49:03;;;;;;;47.23;41.17;;;;;;;;;;5026356;28;20868;-74
2021/04/20 07:51:42;;;;;;;48.60;42.77;;;15.60;99.90;;;;;;5033085;28;20475;-74
2021/04/20 07:54:11;;;;;;;50.50;42.93;;;16.00;99.90;;;;;;5015202;28;20439;-74
2021/04/20 07:56:54;;;;;;;46.27;41.37;;;15.70;99.90;;;;;;5009579;28;20493;-73
2021/04/20 07:59:28;;;;;;;48.10;42.90;;;15.90;99.90;;;;;;5011021;28;20939;-75
2021/04/20 08:02:02;;;;;;;47.27;42.27;;;16.20;99.90;;;;;;4994910;28;20470;-75
2021/04/20 08:04:59;;;;;;;51.40;45.97;;;16.40;99.90;;;;;;5026885;28;20447;-74
2021/04/20 08:07:43;;;;;;;44.67;39.87;;;16.70;99.90;;;;;;4995169;28;20474;-73
2021/04/20 08:10:15;;;;;;;45.37;40.40;;;16.80;99.90;;;;;;5019805;28;20434;-75
2021/04/20 08:12:57;;;;;;;46.70;41.70;;;16.80;99.90;;;;;;5030572;28;20540;-74
2021/04/20 08:15:33;;;;;;;44.63;39.83;;;16.80;99.90;;;;;;5032644;28;20477;-74
2021/04/20 08:18:08;;;;;;;46.33;40.60;;;17.00;99.90;;;;;;5038380;28;20557;-75
2021/04/20 08:20:38;;;;;;;45.30;40.70;;;17.10;99.90;;;;;;5034780;28;20486;-75
2021/04/20 08:23:07;;;;;;;43.43;38.90;;;17.50;99.90;;;;;;5051541;28;20787;-73
2021/04/20 08:25:36;;;;;;;42.37;37.93;;;17.60;97.30;;;;;;5038595;28;20474;-76
2021/04/20 08:28:18;;;;;;;38.20;33.30;;;17.80;93.60;;;;;;5031005;28;20463;-75
2021/04/20 08:31:13;;;;;;;33.03;29.70;;;17.90;91.50;;;;;;5030052;28;20810;-75
2021/04/20 08:33:44;;;;;;;33.40;29.67;;;18.00;90.90;;;;;;5027099;28;20474;-76
2021/04/20 08:36:53;;;;;;;33.70;30.30;;;17.90;91.20;;;;;;5012396;28;20479;-75
2021/04/20 08:39:29;;;;;;;32.10;28.63;;;18.30;90.00;;;;;;5012664;28;20424;-76
2021/04/20 08:42:12;;;;;;;29.63;26.50;;;18.60;88.70;;;;;;5029949;28;20458;-75
2021/04/20 08:45:07;;;;;;;31.13;27.73;;;18.50;87.50;;;;;;5030588;28;20450;-76
2021/04/20 08:47:52;;;;;;;22.70;20.40;;;18.70;80.60;;;;;;5029351;28;20511;-76
2021/04/20 08:50:24;;;;;;;24.10;21.70;;;18.40;75.70;;;;;;5030337;28;20439;-76
2021/04/20 08:53:06;;;;;;;29.33;26.30;;;18.60;78.40;;;;;;5012634;28;20491;-77
2021/04/20 08:55:57;;;;;;;29.03;26.07;;;18.30;79.20;;;;;;5021129;28;20484;-76
2021/04/20 08:58:45;;;;;;;24.00;21.50;;;18.10;82.50;;;;;;5010334;28;20446;-75
2021/04/20 09:01:18;;;;;;;26.30;22.67;;;18.20;78.80;;;;;;5010013;28;20518;-76
2021/04/20 09:04:02;;;;;;;19.10;17.30;;;17.80;79.80;;;;;;4994378;28;20422;-76
2021/04/20 09:06:52;;;;;;;22.17;19.90;;;17.90;79.80;;;;;;5023540;28;20886;-75
2021/04/20 09:09:25;;;;;;;22.60;20.23;;;17.80;79.60;;;;;;5016275;28;20442;-75
2021/04/20 09:12:01;;;;;;;24.20;21.67;;;17.60;83.50;;;;;;5016593;28;20465;-76
2021/04/20 09:14:37;;;;;;;21.40;19.30;;;17.80;82.70;;;;;;5034698;28;20470;-75
2021/04/20 09:17:18;;;;;;;20.77;17.97;;;17.90;78.20;;;;;;5032950;28;20460;-75
2021/04/20 09:20:02;;;;;;;17.50;15.70;;;18.10;71.80;;;;;;5016618;28;20444;-75
2021/04/20 09:22:37;;;;;;;19.90;17.80;;;17.80;74.30;;;;;;5032841;28;20559;-73
2021/04/20 09:25:08;;;;;;;19.03;17.03;;;17.90;77.00;;;;;;5040466;28;20828;-73
2021/04/20 09:27:53;;;;;;;21.60;19.30;;;17.80;73.00;;;;;;5036612;28;20462;-75
2021/04/20 09:30:22;;;;;;;19.67;16.27;;;17.50;81.60;;;;;;5025286;28;20826;-75
2021/04/20 09:32:55;;;;;;;20.87;18.67;;;17.40;74.30;;;;;;5015450;28;20466;-75
2021/04/20 09:35:24;;;;;;;21.83;19.53;;;17.30;76.70;;;;;;5033475;28;20529;-74
2021/04/20 09:37:53;;;;;;;23.37;18.00;;;17.20;82.80;;;;;;5017559;28;20449;-75
2021/04/20 09:40:22;;;;;;;19.17;17.27;;;17.20;80.20;;;;;;5017484;28;20449;-74
2021/04/20 09:42:56;;;;;;;21.13;18.70;;;17.00;81.70;;;;;;5033612;28;20484;-75
2021/04/20 09:45:46;;;;;;;18.70;15.23;;;17.00;79.30;;;;;;5033154;28;20453;-74
2021/04/20 09:48:26;;;;;;;17.70;15.87;;;17.30;73.90;;;;;;5034037;28;20536;-75
2021/04/20 09:51:07;;;;;;;19.67;17.13;;;17.50;71.40;;;;;;5016758;28;20429;-75
2021/04/20 09:54:11;;;;;;;16.50;13.63;;;17.30;80.90;;;;;;5034030;28;20523;-75
2021/04/20 09:56:43;;;;;;;16.50;14.80;;;17.10;78.60;;;;;;5029838;28;20537;-75
2021/04/20 09:59:45;;;;;;;16.00;14.30;;;17.00;75.40;;;;;;5034267;28;20420;-75
2021/04/20 10:02:49;;;;;;;17.73;15.83;;;16.70;80.50;;;;;;5032537;28;20555;-75
2021/04/20 10:05:40;;;;;;;15.97;14.37;;;16.70;80.00;;;;;;5049752;28;20497;-75
2021/04/20 10:08:35;;;;;;;15.43;11.70;;;16.80;79.70;;;;;;5053710;28;20464;-76
2021/04/20 10:11:20;;;;;;;16.07;14.47;;;16.90;73.50;;;;;;5034926;28;20504;-75
2021/04/20 10:14:05;;;;;;;21.97;18.90;;;16.80;74.10;;;;;;5037399;28;20515;-74
2021/04/20 10:16:52;;;;;;;18.40;16.50;;;16.70;75.60;;;;;;5024389;28;20468;-74
2021/04/20 10:19:34;;;;;;;20.60;18.50;;;16.70;76.60;;;;;;5027078;28;20498;-75
2021/04/20 10:22:04;;;;;;;19.40;17.20;;;16.80;75.70;;;;;;5015804;28;20510;-75
2021/04/20 10:24:32;;;;;;;19.17;17.30;;;16.80;84.00;;;;;;5018006;28;20787;-75
2021/04/20 10:27:10;;;;;;;19.90;17.77;;;17.00;80.20;;;;;;5033199;28;20547;-75
2021/04/20 10:30:17;;;;;;;18.87;16.87;;;16.90;75.70;;;;;;5033089;28;20956;-73
2021/04/20 10:32:52;;;;;;;20.27;18.23;;;16.90;83.40;;;;;;5015194;28;21056;-74
2021/04/20 10:35:31;;;;;;;22.37;18.73;;;16.90;74.40;;;;;;5034648;28;20533;-73
2021/04/20 10:38:00;;;;;;;21.30;18.90;;;17.00;77.70;;;;;;5015975;28;20492;-73
2021/04/20 10:40:34;;;;;;;21.63;19.33;;;17.00;78.30;;;;;;4997195;28;20492;-73
2021/04/20 10:43:10;;;;;;;22.80;18.20;;;16.90;77.70;;;;;;5013603;28;20473;-74
2021/04/20 10:45:37;;;;;;;21.30;19.00;;;16.80;79.30;;;;;;5012205;28;20472;-75
2021/04/20 10:48:05;;;;;;;25.53;21.00;;;16.70;77.50;;;;;;5007903;28;20471;-74
2021/04/20 10:50:34;;;;;;;25.17;22.57;;;16.60;82.50;;;;;;5029147;28;20907;-74
2021/04/20 10:53:18;;;;;;;23.80;19.80;;;16.60;80.50;;;;;;4995736;28;20483;-74
2021/04/20 10:55:58;;;;;;;28.87;23.60;;;16.50;81.70;;;;;;5028218;28;20577;-74
2021/04/20 10:58:28;;;;;;;24.10;20.63;;;16.70;79.30;;;;;;5032474;28;20543;-74
2021/04/20 11:00:55;;;;;;;24.93;22.30;;;16.60;79.60;;;;;;5021736;28;20430;-76
2021/04/20 11:03:24;;;;;;;23.20;20.60;;;16.60;83.40;;;;;;5033556;28;20451;-76
2021/04/20 11:05:51;;;;;;;25.03;21.93;;;16.70;82.50;;;;;;5050578;28;20498;-76
2021/04/20 11:08:43;;;;;;;26.87;22.17;;;16.90;74.90;;;;;;5035564;28;20491;-74
2021/04/20 11:11:18;;;;;;;23.87;21.43;;;17.00;73.50;;;;;;5035605;28;20562;-76
2021/04/20 11:13:46;;;;;;;25.83;23.20;;;17.00;74.30;;;;;;5033602;28;20918;-75
2021/04/20 11:16:14;;;;;;;24.77;22.07;;;17.00;76.20;;;;;;5018245;28;20562;-75
2021/04/20 11:18:48;;;;;;;28.90;23.93;;;17.00;79.40;;;;;;5047231;28;20443;-74
2021/04/20 11:21:28;;;;;;;26.83;23.50;;;17.00;76.30;;;;;;5037600;28;20534;-75
2021/04/20 11:24:04;;;;;;;29.80;25.03;;;17.00;77.30;;;;;;5038092;28;20497;-76
2021/04/20 11:26:36;;;;;;;22.87;20.10;;;16.70;78.70;;;;;;5033720;28;20487;-76
2021/04/20 11:29:11;;;;;;;25.50;21.23;;;16.60;78.50;;;;;;5033566;28;20424;-76
2021/04/20 11:31:48;;;;;;;24.33;21.60;;;16.80;76.20;;;;;;5006847;28;20991;-75
2021/04/20 11:34:19;;;;;;;23.20;20.90;;;16.80;75.30;;;;;;5016711;28;20858;-74
2021/04/20 11:36:51;;;;;;;23.67;20.77;;;16.70;72.30;;;;;;5033142;28;20467;-76
2021/04/20 11:39:26;;;;;;;24.50;21.67;;;16.50;76.90;;;;;;5032591;28;20440;-75
2021/04/20 11:42:04;;;;;;;23.70;21.20;;;16.50;74.30;;;;;;5035194;28;20542;-75
2021/04/20 11:44:52;;;;;;;23.43;20.90;;;16.40;76.80;;;;;;5035302;28;20526;-76
2021/04/20 11:47:21;;;;;;;22.60;20.37;;;16.40;76.00;;;;;;5015725;28;20480;-76
2021/04/20 11:50:10;;;;;;;22.23;18.63;;;16.50;80.30;;;;;;4999967;28;20471;-75
2021/04/20 11:52:38;;;;;;;19.70;17.60;;;16.70;75.90;;;;;;5019705;28;20452;-77
2021/04/20 11:55:08;;;;;;;19.60;17.70;;;16.90;73.60;;;;;;5038944;28;20478;-76
2021/04/20 11:57:36;;;;;;;20.40;17.13;;;17.10;76.80;;;;;;5052931;28;20459;-77
2021/04/20 12:00:09;;;;;;;20.37;16.90;;;17.30;72.00;;;;;;5034609;28;20435;-76
2021/04/20 12:02:40;;;;;;;19.50;17.50;;;17.50;71.30;;;;;;5050136;28;20471;-76
2021/04/20 12:05:10;;;;;;;19.67;17.57;;;17.60;70.60;;;;;;5038277;28;20546;-76
2021/04/20 12:07:39;;;;;;;20.00;18.07;;;17.60;68.10;;;;;;5015391;28;20530;-79
2021/04/20 12:10:16;;;;;;;18.33;16.50;;;17.50;67.00;;;;;;5032223;28;20438;-76
2021/04/20 12:12:48;;;;;;;19.37;17.30;;;17.50;67.60;;;;;;5032182;28;20984;-78
2021/04/20 12:15:17;;;;;;;20.73;18.57;;;17.50;66.30;;;;;;5032127;28;20472;-77
2021/04/20 12:17:44;;;;;;;17.63;15.90;;;17.40;66.40;;;;;;5031521;28;20480;-77
2021/04/20 12:20:18;;;;;;;19.57;17.60;;;17.30;66.90;;;;;;5032585;28;20444;-77
2021/04/20 12:22:50;;;;;;;19.10;17.27;;;17.00;66.50;;;;;;4997512;28;20451;-77
2021/04/20 12:25:17;;;;;;;18.43;15.33;;;16.90;65.80;;;;;;5032721;28;20509;-75
2021/04/20 12:27:51;;;;;;;15.93;14.00;;;16.90;65.00;;;;;;5016443;28;20898;-76
2021/04/20 12:30:20;;;;;;;14.40;13.00;;;16.90;65.00;;;;;;5033446;28;20444;-75
2021/04/20 12:32:49;;;;;;;14.50;13.07;;;17.20;67.00;;;;;;5015680;28;20463;-78
2021/04/20 12:35:27;;;;;;;14.93;13.27;;;17.30;58.70;;;;;;5026112;28;20479;-77
2021/04/20 12:37:56;;;;;;;16.00;14.20;;;17.40;57.90;;;;;;5014887;28;20852;-76
2021/04/20 12:40:25;;;;;;;14.97;12.63;;;17.40;65.60;;;;;;5032319;28;20576;-74
2021/04/20 12:42:57;;;;;;;17.30;13.23;;;17.50;62.40;;;;;;5033696;28;20452;-77
2021/04/20 12:45:32;;;;;;;11.47;10.37;;;17.60;60.20;;;;;;5019383;28;20510;-76
2021/04/20 12:47:58;;;;;;;12.20;10.90;;;17.60;59.10;;;;;;5037390;28;20463;-76
2021/04/20 12:50:42;;;;;;;13.27;11.87;;;17.60;61.50;;;;;;5036762;28;20502;-76
2021/04/20 12:53:10;;;;;;;13.23;11.70;;;17.60;61.60;;;;;;5018779;28;20506;-78
2021/04/20 12:55:41;;;;;;;11.10;10.00;;;17.80;62.30;;;;;;5035878;28;20533;-77
2021/04/20 12:58:12;;;;;;;13.10;11.13;;;17.90;61.90;;;;;;5037993;28;20547;-78
2021/04/20 13:00:39;;;;;;;16.77;13.17;;;17.90;60.20;;;;;;5037790;28;20492;-77
2021/04/20 13:03:09;;;;;;;14.47;12.10;;;18.00;60.20;;;;;;5035638;28;20555;-77
2021/04/20 13:05:38;;;;;;;14.93;13.27;;;17.90;61.70;;;;;;5002875;28;21039;-77